Time;durP1;ratioP1;P1;durP2;ratioP2;P2;SDS_P1;SDS_P2;PMS_P1;PMS_P2;Temp;Humidity;BMP_temperature;BMP_pressure;BME280_temperature;BME280_humidity;BME280_pressure;Samples;Min_cycle;Max_cycle;Signal;HPM_P1;HPM_P2
2022/04/11 00:01:33;;;;;;;8.25;2.88;;;2.80;99.90;;;;;;5061653;28;20025;-58
2022/04/11 00:03:58;;;;;;;4.30;2.25;;;2.90;99.90;;;;;;5057851;28;20126;-57
2022/04/11 00:06:24;;;;;;;5.18;2.10;;;2.90;99.90;;;;;;5064973;28;20032;-57
2022/04/11 00:08:49;;;;;;;3.88;2.25;;;2.90;99.90;;;;;;5064956;28;20101;-57
2022/04/11 00:11:15;;;;;;;4.80;2.28;;;2.90;99.90;;;;;;5071292;28;20033;-57
2022/04/11 00:13:40;;;;;;;6.57;2.47;;;2.90;99.90;;;;;;5059894;28;20036;-59
2022/04/11 00:16:09;;;;;;;5.70;2.33;;;2.90;99.90;;;;;;5055733;28;20056;-55
2022/04/11 00:18:35;;;;;;;7.63;2.67;;;2.90;99.90;;;;;;5056186;28;20404;-57
2022/04/11 00:21:01;;;;;;;7.68;2.95;;;2.90;99.90;;;;;;5060109;28;20036;-56
2022/04/11 00:23:33;;;;;;;6.75;2.17;;;2.90;99.90;;;;;;5056466;28;20444;-56
2022/04/11 00:25:58;;;;;;;6.25;2.65;;;2.90;99.90;;;;;;5050738;28;20047;-57
2022/04/11 00:28:24;;;;;;;8.80;3.10;;;2.90;99.90;;;;;;5062108;28;20492;-58
2022/04/11 00:30:49;;;;;;;8.13;2.72;;;2.90;99.90;;;;;;5051576;28;20570;-56
2022/04/11 00:33:15;;;;;;;4.60;2.33;;;2.80;99.90;;;;;;5062687;28;20025;-59
2022/04/11 00:35:40;;;;;;;9.02;3.10;;;2.80;99.90;;;;;;5059186;28;20028;-58
2022/04/11 00:38:06;;;;;;;7.30;2.72;;;2.80;99.90;;;;;;5069703;28;20089;-56
2022/04/11 00:40:31;;;;;;;4.85;2.47;;;2.80;99.90;;;;;;5063625;28;20024;-58
2022/04/11 00:42:57;;;;;;;7.65;2.60;;;2.80;99.90;;;;;;5062062;28;20079;-56
2022/04/11 00:45:23;;;;;;;7.70;2.30;;;2.80;99.90;;;;;;5055020;28;20029;-58
2022/04/11 00:47:48;;;;;;;8.90;2.58;;;2.80;99.90;;;;;;5059067;28;20039;-58
2022/04/11 00:50:14;;;;;;;11.00;2.42;;;2.80;99.90;;;;;;5060828;28;20024;-54
2022/04/11 00:52:45;;;;;;;5.50;2.28;;;2.80;99.90;;;;;;5053571;28;20024;-57
2022/04/11 00:55:13;;;;;;;5.75;2.47;;;2.80;99.90;;;;;;5060075;28;20029;-56
2022/04/11 00:57:39;;;;;;;8.18;3.10;;;2.80;99.90;;;;;;5062629;28;20028;-56
2022/04/11 01:00:07;;;;;;;4.97;2.90;;;2.80;99.90;;;;;;5062390;28;20016;-58
2022/04/11 01:02:33;;;;;;;9.43;2.60;;;2.80;99.90;;;;;;5058570;28;20035;-60
2022/04/11 01:04:59;;;;;;;8.20;2.50;;;2.80;99.90;;;;;;5060340;28;20407;-57
2022/04/11 01:07:24;;;;;;;7.85;2.35;;;2.90;99.90;;;;;;5055179;28;20024;-58
2022/04/11 01:09:50;;;;;;;6.82;2.63;;;2.90;99.90;;;;;;5061187;28;20505;-59
2022/04/11 01:12:16;;;;;;;5.50;2.28;;;2.90;99.90;;;;;;5059152;28;20033;-53
2022/04/11 01:14:42;;;;;;;10.70;2.53;;;2.90;99.90;;;;;;5058686;28;20035;-57
2022/04/11 01:17:08;;;;;;;6.10;2.40;;;2.90;99.90;;;;;;5064240;28;20017;-57
2022/04/11 01:19:34;;;;;;;4.25;2.20;;;2.90;99.90;;;;;;5065529;28;20040;-55
2022/04/11 01:22:00;;;;;;;6.50;2.60;;;2.90;99.90;;;;;;5062523;28;20522;-57
2022/04/11 01:24:25;;;;;;;7.43;2.50;;;2.90;99.90;;;;;;5053299;28;20064;-57
2022/04/11 01:26:51;;;;;;;7.00;2.38;;;2.80;99.90;;;;;;5061869;28;20025;-56
2022/04/11 01:29:18;;;;;;;8.57;3.17;;;2.80;99.90;;;;;;5058983;28;20112;-54
2022/04/11 01:31:44;;;;;;;8.20;2.72;;;2.80;99.90;;;;;;5050138;28;20060;-57
2022/04/11 01:34:09;;;;;;;6.70;3.00;;;2.80;99.90;;;;;;5052394;28;20029;-56
2022/04/11 01:36:35;;;;;;;9.38;2.63;;;2.70;99.90;;;;;;5054554;28;20024;-54
2022/04/11 01:39:00;;;;;;;3.78;2.28;;;2.80;99.90;;;;;;5056974;28;20031;-56
2022/04/11 01:41:26;;;;;;;8.27;2.50;;;2.80;99.90;;;;;;5063801;28;20033;-57
2022/04/11 01:43:52;;;;;;;6.32;2.20;;;2.80;99.90;;;;;;5059103;28;20704;-56
2022/04/11 01:46:17;;;;;;;4.75;2.60;;;2.80;99.90;;;;;;5054604;28;20024;-56
2022/04/11 01:48:43;;;;;;;11.27;2.83;;;2.90;99.90;;;;;;5061364;28;20116;-58
2022/04/11 01:51:09;;;;;;;7.85;2.72;;;2.90;99.90;;;;;;5055145;28;20036;-60
2022/04/11 01:53:34;;;;;;;6.40;2.28;;;2.90;99.90;;;;;;5049973;28;20033;-56
2022/04/11 01:56:00;;;;;;;4.80;2.13;;;3.00;99.90;;;;;;5062807;28;20060;-58
2022/04/11 01:58:25;;;;;;;5.70;2.75;;;3.00;99.90;;;;;;5062231;28;20489;-56
2022/04/11 02:00:51;;;;;;;6.38;2.05;;;3.10;99.90;;;;;;5068839;28;20017;-57
2022/04/11 02:03:16;;;;;;;8.00;2.20;;;3.10;99.90;;;;;;5055646;28;20060;-58
2022/04/11 02:05:43;;;;;;;5.10;2.42;;;3.10;99.90;;;;;;5058270;28;20476;-57
2022/04/11 02:08:10;;;;;;;6.10;2.50;;;3.20;99.90;;;;;;5060370;28;20039;-57
2022/04/11 02:10:37;;;;;;;4.97;2.47;;;3.30;99.90;;;;;;5068218;28;20553;-56
2022/04/11 02:13:03;;;;;;;5.03;2.38;;;3.30;99.90;;;;;;5053351;28;20033;-56
2022/04/11 02:15:29;;;;;;;8.23;2.78;;;3.30;99.90;;;;;;5068673;28;20025;-56
2022/04/11 02:17:55;;;;;;;8.15;2.20;;;3.30;99.90;;;;;;5067811;28;20031;-57
2022/04/11 02:20:21;;;;;;;9.35;2.50;;;3.30;99.90;;;;;;5055125;28;20044;-59
2022/04/11 02:22:47;;;;;;;5.22;2.75;;;3.30;99.90;;;;;;5065092;28;20036;-56
2022/04/11 02:25:14;;;;;;;5.57;2.25;;;3.30;99.90;;;;;;5067707;28;20115;-59
2022/04/11 02:27:39;;;;;;;8.77;2.83;;;3.20;99.90;;;;;;5051554;28;20029;-57
2022/04/11 02:30:06;;;;;;;6.38;2.50;;;3.20;99.90;;;;;;5052089;28;20067;-55
2022/04/11 02:32:31;;;;;;;6.53;2.50;;;3.20;99.90;;;;;;5046396;28;20036;-59
2022/04/11 02:34:57;;;;;;;6.07;2.17;;;3.20;99.90;;;;;;5055486;28;20028;-56
2022/04/11 02:37:22;;;;;;;5.53;2.13;;;3.20;99.90;;;;;;5068237;28;20025;-54
2022/04/11 02:39:48;;;;;;;3.83;1.85;;;3.20;99.90;;;;;;5059581;28;20115;-59
2022/04/11 02:42:41;;;;;;;5.60;2.38;;;3.20;99.90;;;;;;5058123;28;21926;-59
2022/04/11 02:45:07;;;;;;;6.82;2.22;;;3.20;99.90;;;;;;5070517;28;20050;-57
2022/04/11 02:47:33;;;;;;;4.38;1.98;;;3.20;99.90;;;;;;5064849;28;20052;-59
2022/04/11 02:49:58;;;;;;;3.95;2.00;;;3.20;99.90;;;;;;5069746;28;20067;-56
2022/04/11 02:52:25;;;;;;;4.10;2.10;;;3.30;99.90;;;;;;5059880;28;20047;-56
2022/04/11 02:54:50;;;;;;;5.30;2.13;;;3.30;99.90;;;;;;5059718;28;20041;-56
2022/04/11 02:57:16;;;;;;;6.30;2.05;;;3.30;99.90;;;;;;5062871;28;20398;-58
2022/04/11 02:59:41;;;;;;;5.10;2.28;;;3.30;99.90;;;;;;5055554;28;20082;-50
2022/04/11 03:02:07;;;;;;;4.43;2.55;;;3.30;99.90;;;;;;5057395;28;20074;-57
2022/04/11 03:04:32;;;;;;;4.10;2.13;;;3.30;99.90;;;;;;5056428;28;20036;-57
2022/04/11 03:06:58;;;;;;;5.32;2.15;;;3.30;99.90;;;;;;5061715;28;20075;-54
2022/04/11 03:09:24;;;;;;;6.30;2.17;;;3.30;99.90;;;;;;5071745;28;20103;-57
2022/04/11 03:11:49;;;;;;;7.93;2.08;;;3.30;99.90;;;;;;5066292;28;20025;-57
2022/04/11 03:14:15;;;;;;;7.80;2.20;;;3.40;99.90;;;;;;5055838;28;20399;-58
2022/04/11 03:16:41;;;;;;;3.88;1.85;;;3.40;99.90;;;;;;5061406;28;20483;-56
2022/04/11 03:19:08;;;;;;;4.57;2.03;;;3.50;99.90;;;;;;5069081;28;20034;-59
2022/04/11 03:21:33;;;;;;;5.65;1.98;;;3.60;99.90;;;;;;5068288;28;20028;-57
2022/04/11 03:23:59;;;;;;;3.95;1.73;;;3.60;99.90;;;;;;5061234;28;20032;-59
2022/04/11 03:26:24;;;;;;;6.78;1.85;;;3.60;99.90;;;;;;5052654;28;20021;-59
2022/04/11 03:28:50;;;;;;;5.93;1.80;;;3.60;99.90;;;;;;5052495;28;20028;-54
2022/04/11 03:31:15;;;;;;;6.05;2.15;;;3.60;99.90;;;;;;5039991;28;20048;-58
2022/04/11 03:33:41;;;;;;;5.38;1.92;;;3.60;99.90;;;;;;5068129;28;20380;-55
2022/04/11 03:36:06;;;;;;;7.22;2.40;;;3.70;99.90;;;;;;5071301;28;20024;-57
2022/04/11 03:38:32;;;;;;;5.97;2.40;;;3.70;99.90;;;;;;5071072;28;20032;-58
2022/04/11 03:40:58;;;;;;;6.75;2.00;;;3.70;99.90;;;;;;5066493;28;20028;-57
2022/04/11 03:43:23;;;;;;;5.18;2.03;;;3.70;99.90;;;;;;5053576;28;20035;-56
2022/04/11 03:45:49;;;;;;;5.03;2.50;;;3.60;99.90;;;;;;5061596;28;20036;-56
2022/04/11 03:48:15;;;;;;;12.93;5.53;;;3.70;99.90;;;;;;5060043;28;20511;-57
2022/04/11 03:50:40;;;;;;;10.75;4.43;;;3.70;99.90;;;;;;5068031;28;20036;-57
2022/04/11 03:53:06;;;;;;;8.52;3.05;;;3.70;99.90;;;;;;5055640;28;20472;-56
2022/04/11 03:55:32;;;;;;;6.20;2.42;;;3.60;99.90;;;;;;5069252;28;20024;-57
2022/04/11 03:57:57;;;;;;;4.68;2.53;;;3.60;99.90;;;;;;5054771;28;20021;-59
2022/04/11 04:00:23;;;;;;;4.75;2.60;;;3.60;99.90;;;;;;5066808;28;20103;-58
2022/04/11 04:02:49;;;;;;;5.50;2.72;;;3.60;99.90;;;;;;5056991;28;20029;-57
2022/04/11 04:05:15;;;;;;;6.57;2.90;;;3.60;99.90;;;;;;5067345;28;20029;-59
2022/04/11 04:07:40;;;;;;;7.47;3.33;;;3.50;99.90;;;;;;5062095;28;20029;-52
2022/04/11 04:10:07;;;;;;;9.93;2.92;;;3.50;99.90;;;;;;5067557;28;20037;-55
2022/04/11 04:12:32;;;;;;;7.07;3.83;;;3.50;99.90;;;;;;5057348;28;20029;-57
2022/04/11 04:14:58;;;;;;;6.22;3.17;;;3.50;99.90;;;;;;5057083;28;20467;-54
2022/04/11 04:17:24;;;;;;;8.40;3.30;;;3.50;99.90;;;;;;5056392;28;20067;-56
2022/04/11 04:19:49;;;;;;;4.80;2.10;;;3.50;99.90;;;;;;5067039;28;20058;-56
2022/04/11 04:22:15;;;;;;;4.85;2.50;;;3.50;99.90;;;;;;5060083;28;20103;-53
2022/04/11 04:24:41;;;;;;;5.13;2.42;;;3.50;99.90;;;;;;5065463;28;20040;-58
2022/04/11 04:27:07;;;;;;;4.65;2.35;;;3.50;99.90;;;;;;5062526;28;20556;-54
2022/04/11 04:29:34;;;;;;;5.93;2.53;;;3.50;99.90;;;;;;5052821;28;20377;-58
2022/04/11 04:32:00;;;;;;;4.75;2.72;;;3.50;99.90;;;;;;5040578;28;20414;-57
2022/04/11 04:34:25;;;;;;;5.38;2.20;;;3.40;99.90;;;;;;5060042;28;20024;-57
2022/04/11 04:36:52;;;;;;;4.00;1.85;;;3.40;99.90;;;;;;5061160;28;20025;-56
2022/04/11 04:39:17;;;;;;;7.75;2.08;;;3.40;99.90;;;;;;5052931;28;20400;-53
2022/04/11 04:41:43;;;;;;;6.97;1.83;;;3.40;99.90;;;;;;5059692;28;20017;-55
2022/04/11 04:44:09;;;;;;;5.45;2.00;;;3.40;99.90;;;;;;5066437;28;20446;-57
2022/04/11 04:46:35;;;;;;;4.30;2.30;;;3.30;99.90;;;;;;5056798;28;20066;-60
2022/04/11 04:49:02;;;;;;;7.05;2.22;;;3.30;99.90;;;;;;5064171;28;20365;-59
2022/04/11 04:51:28;;;;;;;5.55;2.17;;;3.20;99.90;;;;;;5062674;28;20082;-60
2022/04/11 04:53:54;;;;;;;5.60;2.28;;;3.10;99.90;;;;;;5068929;28;20024;-59
2022/04/11 04:56:19;;;;;;;8.18;2.42;;;3.00;99.90;;;;;;5055948;28;20082;-55
2022/04/11 04:58:45;;;;;;;6.72;2.08;;;3.00;99.90;;;;;;5063996;28;20051;-58
2022/04/11 05:01:12;;;;;;;9.98;2.60;;;2.90;99.90;;;;;;5060557;28;20047;-56
2022/04/11 05:03:38;;;;;;;5.57;1.90;;;2.90;99.90;;;;;;5053949;28;20029;-55
2022/04/11 05:06:03;;;;;;;5.95;2.30;;;2.80;99.90;;;;;;5060528;28;20029;-54
2022/04/11 05:08:29;;;;;;;6.32;2.35;;;2.80;99.90;;;;;;5058689;28;20025;-58
2022/04/11 05:10:54;;;;;;;7.03;2.63;;;2.70;99.90;;;;;;5059264;28;20056;-59
2022/04/11 05:13:20;;;;;;;6.55;2.92;;;2.70;99.90;;;;;;5063556;28;20508;-56
2022/04/11 05:15:46;;;;;;;5.78;2.65;;;2.70;99.90;;;;;;5068342;28;20074;-58
2022/04/11 05:18:13;;;;;;;8.07;2.60;;;2.60;99.90;;;;;;5052775;28;20527;-57
2022/04/11 05:20:39;;;;;;;5.30;2.30;;;2.70;99.90;;;;;;5065943;28;20487;-59
2022/04/11 05:23:05;;;;;;;9.40;2.92;;;2.60;99.90;;;;;;5063469;28;20036;-58
2022/04/11 05:25:30;;;;;;;4.93;2.42;;;2.70;99.90;;;;;;5063105;28;20032;-53
2022/04/11 05:27:56;;;;;;;4.07;2.10;;;2.80;99.90;;;;;;5054555;28;20507;-56
2022/04/11 05:30:21;;;;;;;7.78;2.17;;;3.00;99.90;;;;;;5060131;28;20048;-58
2022/04/11 05:32:47;;;;;;;4.40;2.47;;;3.20;99.90;;;;;;5045248;28;20084;-58
2022/04/11 05:35:12;;;;;;;5.03;2.08;;;3.40;99.90;;;;;;5067176;28;20024;-59
2022/04/11 05:37:38;;;;;;;6.05;2.47;;;3.60;99.90;;;;;;5069500;28;20031;-57
2022/04/11 05:40:05;;;;;;;6.28;2.45;;;3.90;99.90;;;;;;5065991;28;20028;-53
2022/04/11 05:42:31;;;;;;;7.68;2.17;;;4.30;99.90;;;;;;5051637;28;20032;-54
2022/04/11 05:44:57;;;;;;;8.20;2.15;;;4.60;99.90;;;;;;5059251;28;21112;-51
2022/04/11 05:47:22;;;;;;;6.63;2.83;;;4.90;99.90;;;;;;5060779;28;20042;-53
2022/04/11 05:49:48;;;;;;;8.10;2.30;;;5.30;99.90;;;;;;5067789;28;20422;-57
2022/04/11 05:52:18;;;;;;;7.07;2.25;;;5.60;99.90;;;;;;5058036;28;20074;-57
2022/04/11 05:54:44;;;;;;;4.70;2.45;;;5.90;99.90;;;;;;5064473;28;20498;-55
2022/04/11 05:57:10;;;;;;;7.88;1.75;;;6.60;98.80;;;;;;5067578;28;20029;-56
2022/04/11 05:59:36;;;;;;;5.72;2.30;;;7.10;97.20;;;;;;5067077;28;20025;-57
2022/04/11 06:02:02;;;;;;;6.00;2.58;;;7.10;97.30;;;;;;5052617;28;20043;-57
2022/04/11 06:04:27;;;;;;;4.93;1.85;;;7.10;97.20;;;;;;5051324;28;20036;-58
2022/04/11 06:06:53;;;;;;;4.55;2.55;;;7.30;97.40;;;;;;5064554;28;20090;-59
2022/04/11 06:09:18;;;;;;;6.28;2.25;;;7.80;96.40;;;;;;5068864;28;20032;-58
2022/04/11 06:11:44;;;;;;;5.72;2.20;;;8.30;95.20;;;;;;5058271;28;20109;-60
2022/04/11 06:14:09;;;;;;;9.63;2.90;;;9.10;93.90;;;;;;5060699;28;20403;-58
2022/04/11 06:16:35;;;;;;;10.15;2.58;;;9.50;93.10;;;;;;5057872;28;20391;-60
2022/04/11 06:19:00;;;;;;;6.95;2.47;;;9.70;92.50;;;;;;5064744;28;20025;-59
2022/04/11 06:21:26;;;;;;;6.93;3.22;;;9.90;92.10;;;;;;5061930;28;20016;-60
2022/04/11 06:23:52;;;;;;;9.13;2.42;;;9.80;91.70;;;;;;5056872;28;20036;-60
2022/04/11 06:26:17;;;;;;;10.05;3.75;;;9.80;92.30;;;;;;5054692;28;20522;-56
2022/04/11 06:28:43;;;;;;;5.35;2.15;;;10.20;92.20;;;;;;5058266;28;20028;-56
2022/04/11 06:31:10;;;;;;;5.53;2.78;;;10.50;91.30;;;;;;5061366;28;20027;-60
2022/04/11 06:33:36;;;;;;;5.18;3.10;;;11.20;90.00;;;;;;5040545;28;20079;-58
2022/04/11 06:36:02;;;;;;;3.00;2.22;;;11.50;88.70;;;;;;5057765;28;20024;-58
2022/04/11 06:38:28;;;;;;;6.07;2.53;;;12.20;86.80;;;;;;5062295;28;20024;-61
2022/04/11 06:40:55;;;;;;;3.33;2.03;;;13.30;84.70;;;;;;5056333;28;20385;-61
2022/04/11 06:43:21;;;;;;;6.13;2.60;;;14.20;80.20;;;;;;5057170;28;20111;-62
2022/04/11 06:45:47;;;;;;;9.25;2.72;;;14.20;79.10;;;;;;5059255;28;20150;-60
2022/04/11 06:48:13;;;;;;;5.65;2.53;;;15.50;77.30;;;;;;5059144;28;20492;-62
2022/04/11 06:50:38;;;;;;;7.40;2.67;;;15.30;75.20;;;;;;5057111;28;20039;-60
2022/04/11 06:53:04;;;;;;;5.28;2.17;;;16.60;73.80;;;;;;5068803;28;20148;-62
2022/04/11 06:55:29;;;;;;;4.50;2.03;;;16.80;72.00;;;;;;5068339;28;20039;-61
2022/04/11 06:57:55;;;;;;;4.80;2.60;;;16.80;71.60;;;;;;5054702;28;20044;-60
2022/04/11 07:00:20;;;;;;;4.40;2.17;;;16.60;68.60;;;;;;5060617;28;20365;-58
2022/04/11 07:02:46;;;;;;;5.55;2.30;;;16.40;70.90;;;;;;5066366;28;20024;-60
2022/04/11 07:05:11;;;;;;;4.88;2.40;;;16.90;69.80;;;;;;5066146;28;20078;-62
2022/04/11 07:07:39;;;;;;;9.15;2.95;;;18.40;67.70;;;;;;5063222;28;20507;-61
2022/04/11 07:10:05;;;;;;;5.53;2.33;;;18.10;66.70;;;;;;5069597;28;20039;-57
2022/04/11 07:12:31;;;;;;;7.07;2.88;;;18.70;63.90;;;;;;5056144;28;20059;-57
2022/04/11 07:15:00;;;;;;;6.15;2.20;;;17.70;65.40;;;;;;5063024;28;20032;-58
2022/04/11 07:17:26;;;;;;;9.32;2.60;;;18.20;63.00;;;;;;5060370;28;20033;-58
2022/04/11 07:19:51;;;;;;;5.03;2.28;;;18.20;63.80;;;;;;5069489;28;20074;-59
2022/04/11 07:22:24;;;;;;;8.40;2.45;;;19.10;62.90;;;;;;5068748;28;20033;-58
2022/04/11 07:24:49;;;;;;;5.65;2.80;;;19.50;62.40;;;;;;5066076;28;20044;-59
2022/04/11 07:27:15;;;;;;;5.70;2.30;;;19.50;61.20;;;;;;5053165;28;20085;-59
2022/04/11 07:29:40;;;;;;;5.75;2.10;;;18.40;65.10;;;;;;5056967;28;20025;-59
2022/04/11 07:32:06;;;;;;;5.03;2.47;;;19.10;63.30;;;;;;5042351;28;20418;-60
2022/04/11 07:34:32;;;;;;;6.88;3.00;;;19.80;61.50;;;;;;5067573;28;20016;-57
2022/04/11 07:36:57;;;;;;;4.97;2.47;;;20.40;59.50;;;;;;5059788;28;20033;-59
2022/04/11 07:39:26;;;;;;;7.95;2.40;;;20.70;58.80;;;;;;5062553;28;20568;-59
2022/04/11 07:41:55;;;;;;;4.88;2.53;;;20.20;58.10;;;;;;5069520;28;20040;-59
2022/04/11 07:44:23;;;;;;;4.90;2.30;;;20.50;57.20;;;;;;5063427;28;20029;-56
2022/04/11 07:46:49;;;;;;;5.78;2.03;;;20.80;57.30;;;;;;5063209;28;20592;-58
2022/04/11 07:49:14;;;;;;;4.88;3.03;;;20.60;55.80;;;;;;5068443;28;20029;-59
2022/04/11 07:51:40;;;;;;;8.38;3.65;;;20.20;57.20;;;;;;5062336;28;20035;-58
2022/04/11 07:54:05;;;;;;;9.18;3.03;;;20.00;58.40;;;;;;5070118;28;20036;-58
2022/04/11 07:56:31;;;;;;;6.57;2.60;;;19.90;58.50;;;;;;5066341;28;20483;-60
2022/04/11 07:58:57;;;;;;;5.57;2.22;;;20.10;58.30;;;;;;5058372;28;20408;-58
2022/04/11 08:01:23;;;;;;;5.82;2.58;;;19.90;57.20;;;;;;5069852;28;20510;-58
2022/04/11 08:03:49;;;;;;;8.35;2.45;;;19.60;57.80;;;;;;5064674;28;20427;-57
2022/04/11 08:06:15;;;;;;;5.07;2.63;;;20.30;56.10;;;;;;5051224;28;20115;-58
2022/04/11 08:08:47;;;;;;;9.43;2.70;;;20.00;57.70;;;;;;5061416;28;20036;-59
2022/04/11 08:11:17;;;;;;;8.35;2.67;;;20.30;55.40;;;;;;5056336;28;20121;-58
2022/04/11 08:13:43;;;;;;;6.03;2.30;;;19.40;55.50;;;;;;5057117;28;20056;-59
2022/04/11 08:16:09;;;;;;;4.93;2.33;;;19.20;57.40;;;;;;5059533;28;20439;-60
2022/04/11 08:18:35;;;;;;;5.18;2.50;;;19.60;56.60;;;;;;5068132;28;20028;-58
2022/04/11 08:21:02;;;;;;;6.80;2.92;;;19.50;56.40;;;;;;5060674;28;20051;-60
2022/04/11 08:23:28;;;;;;;5.22;2.75;;;19.90;56.90;;;;;;5066149;28;20043;-58
2022/04/11 08:25:53;;;;;;;6.35;3.05;;;19.90;55.50;;;;;;5070469;28;20025;-59
2022/04/11 08:28:22;;;;;;;7.57;2.30;;;19.40;56.40;;;;;;5067730;28;20060;-55
2022/04/11 08:30:48;;;;;;;7.72;2.25;;;19.70;56.50;;;;;;5059610;28;20071;-58
2022/04/11 08:33:14;;;;;;;6.90;2.65;;;20.10;57.20;;;;;;5058761;28;20052;-59
2022/04/11 08:35:40;;;;;;;6.93;2.80;;;20.80;55.50;;;;;;5068886;28;20025;-58
2022/04/11 08:38:05;;;;;;;3.83;2.08;;;20.80;55.20;;;;;;5056447;28;20032;-60
2022/04/11 08:40:31;;;;;;;4.40;2.13;;;20.40;55.90;;;;;;5060742;28;20039;-61
2022/04/11 08:43:02;;;;;;;3.88;2.13;;;21.10;55.10;;;;;;5061844;28;20057;-61
2022/04/11 08:45:29;;;;;;;8.52;2.90;;;21.10;53.80;;;;;;5060838;28;20576;-60
2022/04/11 08:47:55;;;;;;;5.57;2.42;;;20.90;54.30;;;;;;5055292;28;20051;-61
2022/04/11 08:50:21;;;;;;;4.25;2.40;;;21.20;52.70;;;;;;5056151;28;20029;-55
2022/04/11 08:52:51;;;;;;;5.28;2.55;;;20.70;54.20;;;;;;5055881;28;20028;-60
2022/04/11 08:55:17;;;;;;;4.63;2.67;;;20.50;54.50;;;;;;5057319;28;20514;-61
2022/04/11 08:57:42;;;;;;;6.25;2.15;;;20.90;55.80;;;;;;5057727;28;20020;-60
2022/04/11 09:00:15;;;;;;;7.30;1.85;;;21.40;51.40;;;;;;5068040;28;20447;-61
2022/04/11 09:02:43;;;;;;;6.07;2.17;;;21.20;51.60;;;;;;5055613;28;20040;-59
2022/04/11 09:05:09;;;;;;;4.35;2.33;;;20.80;52.40;;;;;;5063507;28;20035;-60
2022/04/11 09:07:50;;;;;;;3.58;2.33;;;20.80;51.60;;;;;;5061244;28;20028;-59
2022/04/11 09:10:23;;;;;;;4.43;2.20;;;20.60;51.40;;;;;;5050604;28;20107;-60
2022/04/11 09:12:51;;;;;;;3.72;1.77;;;20.10;52.50;;;;;;5051859;28;20035;-55
2022/04/11 09:15:18;;;;;;;4.43;2.15;;;20.50;51.70;;;;;;5054472;28;20036;-57
2022/04/11 09:17:44;;;;;;;4.82;2.10;;;19.90;49.90;;;;;;5068471;28;20116;-60
2022/04/11 09:20:23;;;;;;;4.57;2.08;;;19.60;49.90;;;;;;5066565;28;20028;-59
2022/04/11 09:22:49;;;;;;;4.85;1.75;;;19.30;50.00;;;;;;5067372;28;20376;-58
2022/04/11 09:25:23;;;;;;;3.25;2.00;;;18.90;51.40;;;;;;5059252;28;20025;-59
2022/04/11 09:28:03;;;;;;;3.88;2.25;;;18.90;51.90;;;;;;5059249;28;20043;-57
2022/04/11 09:30:32;;;;;;;4.18;2.00;;;18.90;51.00;;;;;;5062917;28;20021;-59
2022/04/11 09:32:57;;;;;;;6.50;1.98;;;19.20;53.00;;;;;;5050428;28;20040;-60
2022/04/11 09:35:37;;;;;;;5.93;2.15;;;19.50;52.50;;;;;;5057713;28;20024;-59
2022/04/11 09:38:13;;;;;;;4.30;2.10;;;19.70;50.80;;;;;;5060194;28;20025;-60
2022/04/11 09:40:39;;;;;;;6.85;1.95;;;19.60;51.20;;;;;;5067322;28;20063;-61
2022/04/11 09:43:05;;;;;;;6.18;1.83;;;19.60;50.90;;;;;;5062241;28;20064;-59
2022/04/11 09:45:31;;;;;;;5.60;2.30;;;19.80;51.80;;;;;;5054531;28;20025;-60
2022/04/11 09:48:02;;;;;;;6.03;2.50;;;19.30;48.40;;;;;;5050375;28;20029;-57
2022/04/11 09:50:31;;;;;;;6.53;2.47;;;18.60;49.50;;;;;;5052292;28;20020;-58
2022/04/11 09:53:11;;;;;;;3.97;2.20;;;17.90;50.20;;;;;;5061521;28;20119;-59
2022/04/11 09:55:38;;;;;;;3.42;1.83;;;17.30;53.00;;;;;;5069896;28;20047;-58
2022/04/11 09:58:04;;;;;;;5.75;2.67;;;17.60;52.60;;;;;;5060016;28;20055;-57
2022/04/11 10:00:35;;;;;;;5.30;2.35;;;18.00;53.30;;;;;;5064304;28;20025;-56
2022/04/11 10:03:01;;;;;;;7.38;2.80;;;17.40;53.30;;;;;;5061770;28;20025;-58
2022/04/11 10:05:27;;;;;;;3.90;2.28;;;17.00;52.70;;;;;;5061757;28;20492;-52
2022/04/11 10:07:54;;;;;;;3.70;1.80;;;16.80;53.20;;;;;;5066942;28;20555;-59
2022/04/11 10:10:22;;;;;;;3.78;2.25;;;16.70;54.20;;;;;;5064629;28;20107;-53
2022/04/11 10:12:48;;;;;;;3.95;2.30;;;16.40;52.80;;;;;;5060499;28;20043;-57
2022/04/11 10:15:14;;;;;;;4.47;2.90;;;16.20;53.60;;;;;;5055148;28;20052;-57
2022/04/11 10:17:40;;;;;;;5.53;2.53;;;15.90;53.80;;;;;;5060457;28;20052;-60
2022/04/11 10:20:06;;;;;;;6.43;2.47;;;16.00;54.40;;;;;;5059077;28;20070;-56
2022/04/11 10:22:38;;;;;;;6.35;2.83;;;15.70;54.00;;;;;;5065817;28;20182;-58
2022/04/11 10:25:06;;;;;;;3.97;2.17;;;15.80;54.50;;;;;;5059883;28;20100;-57
2022/04/11 10:27:32;;;;;;;3.30;1.85;;;15.70;54.50;;;;;;5060117;28;20055;-59
2022/04/11 10:29:59;;;;;;;5.95;2.05;;;15.40;53.70;;;;;;5054417;28;20500;-57
2022/04/11 10:32:29;;;;;;;4.72;2.25;;;15.40;55.30;;;;;;5058359;28;20036;-56
2022/04/11 10:35:01;;;;;;;5.00;2.00;;;15.40;56.10;;;;;;5065242;28;20407;-59
2022/04/11 10:37:48;;;;;;;6.20;1.90;;;15.30;54.60;;;;;;5055802;28;20052;-58
2022/04/11 10:40:16;;;;;;;9.45;1.98;;;15.40;54.60;;;;;;5041570;28;20037;-59
2022/04/11 10:43:07;;;;;;;5.13;2.33;;;15.80;55.50;;;;;;5053928;28;20087;-59
2022/04/11 10:45:42;;;;;;;4.18;2.20;;;15.80;55.70;;;;;;5045019;28;20033;-58
2022/04/11 10:48:09;;;;;;;3.88;2.22;;;15.60;56.20;;;;;;5056613;28;20048;-57
2022/04/11 10:50:36;;;;;;;8.52;3.15;;;15.80;55.90;;;;;;5059169;28;20388;-57
2022/04/11 10:53:10;;;;;;;5.72;1.80;;;15.70;54.70;;;;;;5064575;28;20048;-59
2022/04/11 10:55:52;;;;;;;5.45;2.75;;;15.90;56.80;;;;;;5052938;28;20025;-58
2022/04/11 10:58:22;;;;;;;6.95;2.58;;;15.80;55.70;;;;;;5053263;28;20457;-59
2022/04/11 11:00:48;;;;;;;4.75;1.67;;;15.80;56.30;;;;;;5063850;28;20083;-57
2022/04/11 11:03:14;;;;;;;6.90;2.17;;;15.80;55.70;;;;;;5064777;28;20016;-58
2022/04/11 11:05:49;;;;;;;5.40;2.20;;;15.90;57.70;;;;;;5061942;28;20549;-58
2022/04/11 11:08:15;;;;;;;3.90;2.15;;;16.00;57.60;;;;;;5057992;28;20074;-58
2022/04/11 11:10:44;;;;;;;4.82;2.08;;;16.10;55.80;;;;;;5058993;28;20025;-56
2022/04/11 11:13:30;;;;;;;6.72;2.78;;;16.00;55.80;;;;;;5060009;28;20531;-59
2022/04/11 11:16:22;;;;;;;5.10;2.17;;;15.80;55.00;;;;;;5064157;28;20025;-58
2022/04/11 11:18:51;;;;;;;2.70;2.08;;;15.80;55.40;;;;;;5065844;28;20029;-60
2022/04/11 11:21:19;;;;;;;4.70;2.10;;;16.00;56.00;;;;;;5060567;28;20508;-59
2022/04/11 11:24:12;;;;;;;4.10;1.95;;;16.00;54.10;;;;;;5066493;28;20028;-56
2022/04/11 11:26:59;;;;;;;2.22;1.50;;;16.00;54.70;;;;;;5062335;28;20021;-57
2022/04/11 11:29:27;;;;;;;4.03;1.90;;;15.80;53.70;;;;;;5053197;28;20101;-57
2022/04/11 11:31:57;;;;;;;4.45;1.90;;;15.90;54.90;;;;;;5055588;28;20037;-57
2022/04/11 11:34:28;;;;;;;3.47;1.80;;;15.90;53.60;;;;;;5058559;28;20036;-59
2022/04/11 11:36:57;;;;;;;7.78;2.25;;;16.00;54.90;;;;;;5056899;28;20027;-58
2022/04/11 11:39:24;;;;;;;9.13;3.28;;;15.90;54.90;;;;;;5059309;28;20047;-58
2022/04/11 11:41:52;;;;;;;5.55;3.08;;;15.80;55.60;;;;;;5061982;28;20029;-57
2022/04/11 11:44:19;;;;;;;4.28;1.80;;;15.70;56.00;;;;;;5056477;28;20021;-55
2022/04/11 11:46:56;;;;;;;6.50;2.28;;;15.50;54.60;;;;;;5058184;28;20052;-56
2022/04/11 11:49:22;;;;;;;5.82;2.35;;;15.40;54.60;;;;;;5055361;28;20083;-56
2022/04/11 11:51:48;;;;;;;5.97;2.22;;;15.40;56.80;;;;;;5063373;28;20107;-58
2022/04/11 11:54:14;;;;;;;3.05;2.10;;;15.20;54.10;;;;;;5064571;28;20103;-59
2022/04/11 11:56:45;;;;;;;4.53;2.00;;;15.20;55.40;;;;;;5051697;28;20096;-59
2022/04/11 11:59:12;;;;;;;5.75;2.40;;;15.20;55.30;;;;;;5071203;28;20028;-58
2022/04/11 12:01:41;;;;;;;10.68;2.30;;;15.30;56.40;;;;;;5059825;28;20021;-55
2022/04/11 12:04:19;;;;;;;4.50;2.60;;;15.20;54.60;;;;;;5055323;28;20060;-58
2022/04/11 12:06:53;;;;;;;5.80;2.38;;;15.30;58.20;;;;;;5060436;28;20480;-58
2022/04/11 12:09:19;;;;;;;;;;;15.30;57.40;;;;;;5061084;28;20491;-57
2022/04/11 12:11:45;;;;;;;3.97;2.25;;;15.40;56.90;;;;;;5057940;28;19905;-59
2022/04/11 12:14:11;;;;;;;3.28;1.88;;;15.50;57.70;;;;;;5056387;28;20028;-59
2022/04/11 12:16:39;;;;;;;5.75;2.45;;;15.30;56.10;;;;;;5058031;28;20025;-56
2022/04/11 12:19:05;;;;;;;3.88;2.15;;;15.20;57.00;;;;;;5053478;28;20775;-60
2022/04/11 12:21:35;;;;;;;5.38;2.42;;;15.20;56.80;;;;;;5058475;28;20090;-59
2022/04/11 12:24:06;;;;;;;7.28;2.10;;;15.30;57.40;;;;;;5058204;28;20086;-59
2022/04/11 12:26:33;;;;;;;4.47;1.90;;;15.30;56.90;;;;;;5057570;28;20053;-58
2022/04/11 12:29:07;;;;;;;4.32;1.77;;;15.20;54.80;;;;;;5059904;28;20028;-55
2022/04/11 12:31:33;;;;;;;4.30;2.40;;;15.10;54.60;;;;;;5066623;28;20507;-56
2022/04/11 12:34:10;;;;;;;5.57;2.33;;;15.00;55.60;;;;;;5064525;28;20063;-57
2022/04/11 12:36:36;;;;;;;5.70;2.08;;;15.10;58.30;;;;;;5060842;28;20025;-58
2022/04/11 12:39:11;;;;;;;3.33;2.25;;;15.40;58.30;;;;;;5063801;28;20437;-59
2022/04/11 12:41:47;;;;;;;5.63;2.30;;;15.50;57.40;;;;;;5057317;28;20017;-57
2022/04/11 12:44:20;;;;;;;6.80;1.95;;;15.40;55.40;;;;;;5063140;28;20031;-60
2022/04/11 12:46:47;;;;;;;4.10;2.42;;;15.50;57.10;;;;;;5061387;28;20463;-57
2022/04/11 12:49:15;;;;;;;3.88;2.22;;;15.50;56.90;;;;;;5054911;28;20052;-58
2022/04/11 12:51:41;;;;;;;4.95;1.88;;;15.60;57.80;;;;;;5059343;28;20027;-57
2022/04/11 12:54:14;;;;;;;4.55;2.10;;;15.60;57.30;;;;;;5054009;28;20033;-59